• Join FlightAware (Why Join?)
  • Login
  • US Flag 
06:46AM EDT


 

Airport Tracker/Info


-or-


 

Live Flight TrackerFlight Track Log ✈ UAL5829 ✈ 19-Sep-2013 ✈ KORD - KLEX

Flight Track Log - Related Links

Times and Time Zones

All times are in EDT time to prevent confusion due to time zone crossing. See the UAL5829 flight status page for this flight to view local times or setup timezone preferences in your user account.

Time Position Orientation Groundspeed Altitude Reporting Facility
EDT Latitude Longitude Course Direction KTS MPH feet Rate Location/Type
11:06PM 41.9167 -87.8833 169° South 194 223 3,100  Level Chicago TRACON
11:08PM 41.8392 -87.8278 152° Southeast 211 243 5,400 1,620 Climbing Chicago Center
11:09PM 41.7719 -87.7872 156° South 249 287 7,200 1,860 Climbing Chicago Center
11:10PM 41.5648 -87.5356 169° South  Level Estimated
11:10PM 41.7022 -87.7436 155° Southeast 270 311 9,300  Level Chicago Center
11:11PM 41.4652 -87.5233 175° South  Level FlightAware Approximate
11:11PM 41.6319 -87.7000 155° Southeast 277 319 11,300  Level Chicago Center
11:12PM 41.3823 -87.4485 169° South  Level Estimated
11:12PM 41.5419 -87.6450 155° Southeast 289 333 12,900  Level Chicago Center
11:13PM 41.4589 -87.5925 155° Southeast 321 369 13,900 960 Climbing Chicago Center
11:14PM 41.3642 -87.5608 166° South 350 403 14,900 960 Climbing Chicago Center
11:15PM 41.2650 -87.5444 173° South 355 409 15,900 960 Climbing Chicago Center
11:16PM 41.1644 -87.5236 171° South 364 419 16,900 960 Climbing Chicago Center
11:17PM 41.0622 -87.4953 168° South 374 430 17,900 1,020 Climbing Chicago Center
11:18PM 40.9589 -87.4669 168° South 379 436 19,000 1,020 Climbing Chicago Center
11:19PM 40.8553 -87.4383 168° South 380 437 20,000 960 Climbing Chicago Center
11:20PM 40.7481 -87.4125 170° South 390 449 21,000 960 Climbing Chicago Center
11:21PM 40.6428 -87.3844 169° South 386 444 22,000 960 Climbing Chicago Center
11:22PM 40.5383 -87.3575 169° South 385 443 23,000 1,020 Climbing Chicago Center
11:23PM 40.4236 -87.3136 164° South 390 449 24,100 1,020 Climbing Chicago Center
11:24PM 40.3419 -87.2172 138° Southeast 397 457 25,100 960 Climbing Chicago Center
11:25PM 40.2594 -87.1203 138° Southeast 400 460 26,100 960 Climbing Chicago Center
11:26PM 40.1756 -87.0228 138° Southeast 403 464 27,100 960 Climbing Chicago Center
11:27PM 40.0906 -86.9228 138° Southeast 407 468 28,000 900 Climbing Indianapolis Center
11:28PM 39.9997 -86.8331 143° Southeast 411 473 28,900 480 Climbing Indianapolis Center
11:29PM 39.8972 -86.7592 151° Southeast 420 483 29,000  Climbing Indianapolis Center
11:30PM 39.7869 -86.6861 153° Southeast 443 510 29,000  Level Indianapolis Center
11:31PM 39.6733 -86.6081 152° Southeast 464 534 29,000  Level Indianapolis Center
11:32PM 39.5569 -86.5311 153° Southeast 477 549 29,000 -960 Level Indianapolis Center
11:33PM 39.4189 -86.4375 152° Southeast 476 548 27,100 -1,920 Descending Indianapolis Center
11:34PM 39.3058 -86.3619 153° Southeast 467 537 25,100 -1,920 Descending Indianapolis Center
11:35PM 39.1933 -86.2861 152° Southeast 461 531 23,200 -1,080 Descending Indianapolis Center
11:36PM 39.0850 -86.2150 153° Southeast 444 511 23,000 -120 Descending Indianapolis Center
11:37PM 38.9756 -86.1422 153° Southeast 445 512 23,000  Level Indianapolis Center
11:38PM 38.8697 -86.0747 154° Southeast 445 512 23,000 -540 Level Indianapolis Center
11:39PM 38.7544 -85.9511 140° Southeast 452 520 22,000 -1,380 Descending Indianapolis Center
11:40PM 38.6994 -85.8447 123° Southeast 441 507 20,300 -1,860 Descending Indianapolis Center
11:41PM 38.6275 -85.7056 123° Southeast 397 457 18,300 -2,100 Descending Indianapolis Center
11:42PM 38.5700 -85.5994 125° Southeast 372 428 16,100 -2,280 Descending Indianapolis Center
11:43PM 38.5158 -85.4964 124° Southeast 358 412 13,700 -2,100 Descending Indianapolis Center
11:44PM 38.4686 -85.3928 120° Southeast 338 389 11,900 -1,380 Descending Indianapolis Center
11:45PM 38.4300 -85.2864 115° Southeast 331 381 11,000 -480 Descending Indianapolis Center
11:46PM 38.3889 -85.1839 117° Southeast 329 379 11,000  Level Indianapolis Center
11:47PM 38.3494 -85.0797 116° Southeast 326 375 11,000  Level Indianapolis Center
11:48PM 38.3097 -84.9814 117° Southeast 316 364 11,000 -360 Level Indianapolis Center
11:49PM 38.2750 -84.8861 115° Southeast 298 343 10,300 -540 Descending Indianapolis Center
11:50PM 38.2386 -84.7950 117° Southeast 253 291 9,900 -1,140 Descending Indianapolis Center
11:51PM 38.2106 -84.7161 114° Southeast 246 283 8,000 -1,740 Descending Indianapolis Center
11:52PM 38.2167 -84.6261 85° East 252 290 6,400 -1,020 Descending Indianapolis Center
11:53PM 38.2219 -84.5394 86° East 249 287 6,000 -960 Descending Indianapolis Center
11:54PM 38.2183 -84.4667 94° East 239 275 4,500 -1,380 Descending Indianapolis Center
11:55PM 38.1739 -84.4475 161° South 218 251 3,200 -720 Descending Indianapolis Center
11:56PM 38.1428 -84.4861 224° Southwest 183 211 3,100 -300 Descending Indianapolis Center
11:57PM 38.1128 -84.5217 223° Southwest 164 189 2,700 -540 Descending Indianapolis Center
11:58PM 38.0847 -84.5531 221° Southwest 151 174 2,100 -600 Descending Indianapolis Center
11:59PM 38.0589 -84.5814 221° Southwest 143 165 1,600 -540 Descending Indianapolis Center
12:01AM 38.0300 -84.6111 219° Southwest 141 162 1,100 -540 Descending Indianapolis Center